Terminal Aerodrome Forecast
Issued by NWS

Home | Current Version | Previous Version | Text Only | Print | Product List | Glossary Off
Versions: 1 2 3 4 5 6 7 8 9 10 11 12 13 14 15

000
FTUS43 KGRB 272300
TAFCWA
TAF
KCWA 272330Z 2800/2824 17003KT P6SM SCT060
     FM280800 00000KT 6SM BR BKN200
      TEMPO 2809/2813 1SM BR FEW003
     FM281400 22004KT P6SM SCT050 SCT200
      AMD LTD TO CLD VIS AND WIND 2803/2811=

USA.gov is the U.S. government's official web portal to all federal, state and local government web resources and services.